sensor_id;sensor_type;location;lat;lon;timestamp;P1;durP1;ratioP1;P2;durP2;ratioP2
69207;SDS011;56321;47.662;8.878;2022-08-03T00:01:21;5.00;;;1.50;;
69207;SDS011;56321;47.662;8.878;2022-08-03T00:03:46;5.20;;;1.60;;
69207;SDS011;56321;47.662;8.878;2022-08-03T00:06:11;4.50;;;1.40;;
69207;SDS011;56321;47.662;8.878;2022-08-03T00:08:37;4.87;;;1.50;;
69207;SDS011;56321;47.662;8.878;2022-08-03T00:11:02;5.20;;;1.40;;
69207;SDS011;56321;47.662;8.878;2022-08-03T00:13:28;5.00;;;1.50;;
69207;SDS011;56321;47.662;8.878;2022-08-03T00:15:53;4.90;;;1.35;;
69207;SDS011;56321;47.662;8.878;2022-08-03T00:18:19;5.37;;;1.50;;
69207;SDS011;56321;47.662;8.878;2022-08-03T00:20:45;5.15;;;1.50;;
69207;SDS011;56321;47.662;8.878;2022-08-03T00:23:10;4.70;;;1.37;;
69207;SDS011;56321;47.662;8.878;2022-08-03T00:25:36;5.20;;;1.73;;
69207;SDS011;56321;47.662;8.878;2022-08-03T00:28:02;5.03;;;1.52;;
69207;SDS011;56321;47.662;8.878;2022-08-03T00:30:28;5.60;;;1.70;;
69207;SDS011;56321;47.662;8.878;2022-08-03T00:32:54;4.97;;;1.43;;
69207;SDS011;56321;47.662;8.878;2022-08-03T00:35:20;5.10;;;1.80;;
69207;SDS011;56321;47.662;8.878;2022-08-03T00:37:45;4.83;;;1.30;;
69207;SDS011;56321;47.662;8.878;2022-08-03T00:40:12;5.97;;;1.63;;
69207;SDS011;56321;47.662;8.878;2022-08-03T00:42:54;5.50;;;1.60;;
69207;SDS011;56321;47.662;8.878;2022-08-03T00:45:22;5.35;;;1.70;;
69207;SDS011;56321;47.662;8.878;2022-08-03T00:47:49;5.50;;;1.50;;
69207;SDS011;56321;47.662;8.878;2022-08-03T00:50:15;5.20;;;1.47;;
69207;SDS011;56321;47.662;8.878;2022-08-03T00:52:42;4.85;;;1.50;;
69207;SDS011;56321;47.662;8.878;2022-08-03T00:55:08;5.32;;;1.60;;
69207;SDS011;56321;47.662;8.878;2022-08-03T00:57:34;4.20;;;1.27;;
69207;SDS011;56321;47.662;8.878;2022-08-03T01:00:01;5.20;;;1.50;;
69207;SDS011;56321;47.662;8.878;2022-08-03T01:02:27;4.95;;;1.40;;
69207;SDS011;56321;47.662;8.878;2022-08-03T01:04:53;4.90;;;1.35;;
69207;SDS011;56321;47.662;8.878;2022-08-03T01:10:01;5.20;;;1.70;;
69207;SDS011;56321;47.662;8.878;2022-08-03T01:12:31;5.87;;;1.70;;
69207;SDS011;56321;47.662;8.878;2022-08-03T01:17:55;4.85;;;1.60;;
69207;SDS011;56321;47.662;8.878;2022-08-03T01:20:23;5.47;;;1.50;;
69207;SDS011;56321;47.662;8.878;2022-08-03T01:31:35;5.47;;;1.70;;
69207;SDS011;56321;47.662;8.878;2022-08-03T01:34:24;5.00;;;1.70;;
69207;SDS011;56321;47.662;8.878;2022-08-03T01:36:52;5.25;;;1.42;;
69207;SDS011;56321;47.662;8.878;2022-08-03T01:39:21;5.73;;;1.80;;
69207;SDS011;56321;47.662;8.878;2022-08-03T01:41:55;5.30;;;1.70;;
69207;SDS011;56321;47.662;8.878;2022-08-03T01:44:23;6.05;;;1.73;;
69207;SDS011;56321;47.662;8.878;2022-08-03T01:46:53;5.30;;;1.80;;
69207;SDS011;56321;47.662;8.878;2022-08-03T01:49:24;4.70;;;1.63;;
69207;SDS011;56321;47.662;8.878;2022-08-03T01:51:50;6.13;;;1.60;;
69207;SDS011;56321;47.662;8.878;2022-08-03T01:54:17;5.22;;;1.70;;
69207;SDS011;56321;47.662;8.878;2022-08-03T01:56:44;5.72;;;1.70;;
69207;SDS011;56321;47.662;8.878;2022-08-03T01:59:13;5.47;;;1.60;;
69207;SDS011;56321;47.662;8.878;2022-08-03T02:01:41;5.15;;;1.70;;
69207;SDS011;56321;47.662;8.878;2022-08-03T02:04:07;5.50;;;1.77;;
69207;SDS011;56321;47.662;8.878;2022-08-03T02:06:34;5.50;;;1.80;;
69207;SDS011;56321;47.662;8.878;2022-08-03T02:09:02;6.05;;;1.85;;
69207;SDS011;56321;47.662;8.878;2022-08-03T02:11:29;5.93;;;2.10;;
69207;SDS011;56321;47.662;8.878;2022-08-03T02:13:57;5.30;;;1.88;;
69207;SDS011;56321;47.662;8.878;2022-08-03T02:16:25;5.80;;;1.57;;
69207;SDS011;56321;47.662;8.878;2022-08-03T02:18:52;5.43;;;1.80;;
69207;SDS011;56321;47.662;8.878;2022-08-03T02:21:19;5.43;;;1.80;;
69207;SDS011;56321;47.662;8.878;2022-08-03T02:23:46;4.82;;;1.70;;
69207;SDS011;56321;47.662;8.878;2022-08-03T02:26:14;6.17;;;1.90;;
69207;SDS011;56321;47.662;8.878;2022-08-03T02:28:44;5.95;;;2.00;;
69207;SDS011;56321;47.662;8.878;2022-08-03T02:31:14;5.32;;;1.67;;
69207;SDS011;56321;47.662;8.878;2022-08-03T02:33:47;5.40;;;1.73;;
69207;SDS011;56321;47.662;8.878;2022-08-03T02:36:14;5.32;;;1.88;;
69207;SDS011;56321;47.662;8.878;2022-08-03T02:38:43;5.97;;;1.80;;
69207;SDS011;56321;47.662;8.878;2022-08-03T02:41:15;5.60;;;1.67;;
69207;SDS011;56321;47.662;8.878;2022-08-03T02:43:45;4.95;;;1.60;;
69207;SDS011;56321;47.662;8.878;2022-08-03T02:46:16;5.67;;;1.80;;
69207;SDS011;56321;47.662;8.878;2022-08-03T02:51:11;5.32;;;1.90;;
69207;SDS011;56321;47.662;8.878;2022-08-03T02:53:37;5.47;;;2.03;;
69207;SDS011;56321;47.662;8.878;2022-08-03T02:56:04;5.45;;;2.00;;
69207;SDS011;56321;47.662;8.878;2022-08-03T02:58:30;5.87;;;1.90;;
69207;SDS011;56321;47.662;8.878;2022-08-03T03:00:57;5.72;;;2.00;;
69207;SDS011;56321;47.662;8.878;2022-08-03T03:03:23;5.68;;;1.90;;
69207;SDS011;56321;47.662;8.878;2022-08-03T03:05:50;5.60;;;2.08;;
69207;SDS011;56321;47.662;8.878;2022-08-03T03:08:17;5.70;;;2.00;;
69207;SDS011;56321;47.662;8.878;2022-08-03T03:10:43;6.00;;;1.90;;
69207;SDS011;56321;47.662;8.878;2022-08-03T03:13:09;5.75;;;2.00;;
69207;SDS011;56321;47.662;8.878;2022-08-03T03:15:37;5.57;;;1.90;;
69207;SDS011;56321;47.662;8.878;2022-08-03T03:18:03;6.07;;;1.87;;
69207;SDS011;56321;47.662;8.878;2022-08-03T03:20:30;5.72;;;2.15;;
69207;SDS011;56321;47.662;8.878;2022-08-03T03:22:59;5.78;;;1.95;;
69207;SDS011;56321;47.662;8.878;2022-08-03T03:25:27;4.85;;;1.70;;
69207;SDS011;56321;47.662;8.878;2022-08-03T03:27:55;5.77;;;2.20;;
69207;SDS011;56321;47.662;8.878;2022-08-03T03:30:21;6.22;;;2.00;;
69207;SDS011;56321;47.662;8.878;2022-08-03T03:32:47;6.05;;;2.10;;
69207;SDS011;56321;47.662;8.878;2022-08-03T03:35:13;5.60;;;2.00;;
69207;SDS011;56321;47.662;8.878;2022-08-03T03:37:39;6.50;;;2.10;;
69207;SDS011;56321;47.662;8.878;2022-08-03T03:40:04;6.17;;;2.20;;
69207;SDS011;56321;47.662;8.878;2022-08-03T03:42:32;5.50;;;2.03;;
69207;SDS011;56321;47.662;8.878;2022-08-03T03:44:58;5.88;;;2.05;;
69207;SDS011;56321;47.662;8.878;2022-08-03T03:47:27;6.80;;;1.90;;
69207;SDS011;56321;47.662;8.878;2022-08-03T03:49:53;5.40;;;2.22;;
69207;SDS011;56321;47.662;8.878;2022-08-03T03:52:19;5.77;;;2.00;;
69207;SDS011;56321;47.662;8.878;2022-08-03T03:54:44;6.03;;;2.20;;
69207;SDS011;56321;47.662;8.878;2022-08-03T03:57:09;5.93;;;1.92;;
69207;SDS011;56321;47.662;8.878;2022-08-03T03:59:39;5.40;;;2.00;;
69207;SDS011;56321;47.662;8.878;2022-08-03T04:02:06;5.90;;;1.90;;
69207;SDS011;56321;47.662;8.878;2022-08-03T04:04:32;6.47;;;2.20;;
69207;SDS011;56321;47.662;8.878;2022-08-03T04:07:17;5.93;;;1.80;;
69207;SDS011;56321;47.662;8.878;2022-08-03T04:10:03;6.25;;;1.90;;
69207;SDS011;56321;47.662;8.878;2022-08-03T04:12:52;6.10;;;1.93;;
69207;SDS011;56321;47.662;8.878;2022-08-03T04:15:20;6.13;;;1.98;;
69207;SDS011;56321;47.662;8.878;2022-08-03T04:17:48;5.57;;;1.92;;
69207;SDS011;56321;47.662;8.878;2022-08-03T04:20:16;5.40;;;1.77;;
69207;SDS011;56321;47.662;8.878;2022-08-03T04:22:45;5.50;;;1.85;;
69207;SDS011;56321;47.662;8.878;2022-08-03T04:25:13;6.03;;;1.97;;
69207;SDS011;56321;47.662;8.878;2022-08-03T04:27:43;5.65;;;1.90;;
69207;SDS011;56321;47.662;8.878;2022-08-03T04:30:10;6.00;;;2.33;;
69207;SDS011;56321;47.662;8.878;2022-08-03T04:32:36;5.43;;;2.00;;
69207;SDS011;56321;47.662;8.878;2022-08-03T04:35:03;6.33;;;1.80;;
69207;SDS011;56321;47.662;8.878;2022-08-03T04:38:05;5.90;;;2.13;;
69207;SDS011;56321;47.662;8.878;2022-08-03T04:40:26;5.97;;;2.28;;
69207;SDS011;56321;47.662;8.878;2022-08-03T04:42:56;5.30;;;1.90;;
69207;SDS011;56321;47.662;8.878;2022-08-03T04:45:23;5.40;;;1.77;;
69207;SDS011;56321;47.662;8.878;2022-08-03T04:47:49;6.00;;;2.20;;
69207;SDS011;56321;47.662;8.878;2022-08-03T04:50:16;6.20;;;2.00;;
69207;SDS011;56321;47.662;8.878;2022-08-03T04:52:41;6.10;;;2.03;;
69207;SDS011;56321;47.662;8.878;2022-08-03T04:55:07;5.80;;;2.10;;
69207;SDS011;56321;47.662;8.878;2022-08-03T04:57:33;5.95;;;1.98;;
69207;SDS011;56321;47.662;8.878;2022-08-03T04:59:58;5.87;;;2.10;;
69207;SDS011;56321;47.662;8.878;2022-08-03T05:02:23;6.00;;;2.00;;
69207;SDS011;56321;47.662;8.878;2022-08-03T05:04:49;5.93;;;2.10;;
69207;SDS011;56321;47.662;8.878;2022-08-03T05:07:15;5.97;;;2.17;;
69207;SDS011;56321;47.662;8.878;2022-08-03T05:09:41;6.33;;;2.00;;
69207;SDS011;56321;47.662;8.878;2022-08-03T05:12:07;6.30;;;2.03;;
69207;SDS011;56321;47.662;8.878;2022-08-03T05:14:33;6.20;;;2.33;;
69207;SDS011;56321;47.662;8.878;2022-08-03T05:17:01;6.20;;;2.37;;
69207;SDS011;56321;47.662;8.878;2022-08-03T05:19:27;5.60;;;2.10;;
69207;SDS011;56321;47.662;8.878;2022-08-03T05:21:53;6.03;;;2.10;;
69207;SDS011;56321;47.662;8.878;2022-08-03T05:24:18;5.33;;;2.13;;
69207;SDS011;56321;47.662;8.878;2022-08-03T05:26:43;6.32;;;2.45;;
69207;SDS011;56321;47.662;8.878;2022-08-03T05:29:09;6.60;;;2.33;;
69207;SDS011;56321;47.662;8.878;2022-08-03T05:31:34;5.97;;;2.30;;
69207;SDS011;56321;47.662;8.878;2022-08-03T05:34:00;5.90;;;2.50;;
69207;SDS011;56321;47.662;8.878;2022-08-03T05:36:25;6.93;;;2.78;;
69207;SDS011;56321;47.662;8.878;2022-08-03T05:38:51;7.53;;;2.80;;
69207;SDS011;56321;47.662;8.878;2022-08-03T05:41:16;8.57;;;2.50;;
69207;SDS011;56321;47.662;8.878;2022-08-03T05:43:41;6.78;;;2.55;;
69207;SDS011;56321;47.662;8.878;2022-08-03T05:46:07;7.43;;;2.47;;
69207;SDS011;56321;47.662;8.878;2022-08-03T05:48:32;7.07;;;2.93;;
69207;SDS011;56321;47.662;8.878;2022-08-03T05:50:58;6.60;;;2.77;;
69207;SDS011;56321;47.662;8.878;2022-08-03T05:53:23;7.00;;;2.85;;
69207;SDS011;56321;47.662;8.878;2022-08-03T05:55:48;8.43;;;2.80;;
69207;SDS011;56321;47.662;8.878;2022-08-03T05:58:14;5.97;;;2.17;;
69207;SDS011;56321;47.662;8.878;2022-08-03T06:00:39;12.03;;;3.90;;
69207;SDS011;56321;47.662;8.878;2022-08-03T06:03:04;16.13;;;3.67;;
69207;SDS011;56321;47.662;8.878;2022-08-03T06:05:30;25.40;;;5.93;;
69207;SDS011;56321;47.662;8.878;2022-08-03T06:07:55;9.10;;;3.25;;
69207;SDS011;56321;47.662;8.878;2022-08-03T06:10:21;7.13;;;2.87;;
69207;SDS011;56321;47.662;8.878;2022-08-03T06:12:46;6.63;;;2.97;;
69207;SDS011;56321;47.662;8.878;2022-08-03T06:15:13;6.72;;;3.05;;
69207;SDS011;56321;47.662;8.878;2022-08-03T06:17:49;6.68;;;3.10;;
69207;SDS011;56321;47.662;8.878;2022-08-03T06:20:19;7.50;;;2.88;;
69207;SDS011;56321;47.662;8.878;2022-08-03T06:22:45;7.50;;;2.70;;
69207;SDS011;56321;47.662;8.878;2022-08-03T06:25:11;6.57;;;2.50;;
69207;SDS011;56321;47.662;8.878;2022-08-03T06:27:36;7.53;;;3.00;;
69207;SDS011;56321;47.662;8.878;2022-08-03T06:30:04;6.35;;;2.60;;
69207;SDS011;56321;47.662;8.878;2022-08-03T06:32:31;7.33;;;2.73;;
69207;SDS011;56321;47.662;8.878;2022-08-03T06:34:57;6.57;;;2.75;;
69207;SDS011;56321;47.662;8.878;2022-08-03T06:37:23;6.70;;;2.88;;
69207;SDS011;56321;47.662;8.878;2022-08-03T06:39:48;6.47;;;2.70;;
69207;SDS011;56321;47.662;8.878;2022-08-03T06:42:13;6.77;;;2.60;;
69207;SDS011;56321;47.662;8.878;2022-08-03T06:44:39;7.03;;;2.50;;
69207;SDS011;56321;47.662;8.878;2022-08-03T06:47:04;7.90;;;2.90;;
69207;SDS011;56321;47.662;8.878;2022-08-03T06:49:30;6.23;;;2.70;;
69207;SDS011;56321;47.662;8.878;2022-08-03T06:51:55;7.27;;;2.70;;
69207;SDS011;56321;47.662;8.878;2022-08-03T06:54:21;6.17;;;2.70;;
69207;SDS011;56321;47.662;8.878;2022-08-03T06:56:48;7.55;;;2.72;;
69207;SDS011;56321;47.662;8.878;2022-08-03T06:59:13;6.25;;;2.70;;
69207;SDS011;56321;47.662;8.878;2022-08-03T07:01:39;8.07;;;2.90;;
69207;SDS011;56321;47.662;8.878;2022-08-03T07:04:05;6.63;;;2.60;;
69207;SDS011;56321;47.662;8.878;2022-08-03T07:06:30;7.23;;;2.60;;
69207;SDS011;56321;47.662;8.878;2022-08-03T07:08:55;6.77;;;3.10;;
69207;SDS011;56321;47.662;8.878;2022-08-03T07:11:21;7.78;;;2.63;;
69207;SDS011;56321;47.662;8.878;2022-08-03T07:13:47;7.40;;;2.80;;
69207;SDS011;56321;47.662;8.878;2022-08-03T07:16:12;6.80;;;2.80;;
69207;SDS011;56321;47.662;8.878;2022-08-03T07:18:38;7.53;;;3.17;;
69207;SDS011;56321;47.662;8.878;2022-08-03T07:21:03;7.07;;;3.00;;
69207;SDS011;56321;47.662;8.878;2022-08-03T07:23:29;6.20;;;2.60;;
69207;SDS011;56321;47.662;8.878;2022-08-03T07:25:54;7.03;;;2.90;;
69207;SDS011;56321;47.662;8.878;2022-08-03T07:28:19;6.13;;;2.78;;
69207;SDS011;56321;47.662;8.878;2022-08-03T07:30:45;6.53;;;2.80;;
69207;SDS011;56321;47.662;8.878;2022-08-03T07:33:10;6.50;;;2.80;;
69207;SDS011;56321;47.662;8.878;2022-08-03T07:35:36;6.60;;;2.80;;
69207;SDS011;56321;47.662;8.878;2022-08-03T07:38:02;7.63;;;3.00;;
69207;SDS011;56321;47.662;8.878;2022-08-03T07:40:27;7.50;;;2.70;;
69207;SDS011;56321;47.662;8.878;2022-08-03T07:42:52;6.10;;;2.75;;
69207;SDS011;56321;47.662;8.878;2022-08-03T07:45:18;6.33;;;2.70;;
69207;SDS011;56321;47.662;8.878;2022-08-03T07:47:43;6.53;;;3.00;;
69207;SDS011;56321;47.662;8.878;2022-08-03T07:50:09;6.17;;;3.00;;
69207;SDS011;56321;47.662;8.878;2022-08-03T07:52:34;7.47;;;2.72;;
69207;SDS011;56321;47.662;8.878;2022-08-03T07:55:12;7.13;;;3.00;;
69207;SDS011;56321;47.662;8.878;2022-08-03T07:57:37;8.17;;;2.93;;
69207;SDS011;56321;47.662;8.878;2022-08-03T08:00:03;6.60;;;2.90;;
69207;SDS011;56321;47.662;8.878;2022-08-03T08:02:30;7.07;;;2.83;;
69207;SDS011;56321;47.662;8.878;2022-08-03T08:04:56;6.50;;;3.17;;
69207;SDS011;56321;47.662;8.878;2022-08-03T08:07:21;6.30;;;2.90;;
69207;SDS011;56321;47.662;8.878;2022-08-03T08:09:47;6.00;;;2.80;;
69207;SDS011;56321;47.662;8.878;2022-08-03T08:12:12;5.80;;;2.83;;
69207;SDS011;56321;47.662;8.878;2022-08-03T08:14:37;7.53;;;3.10;;
69207;SDS011;56321;47.662;8.878;2022-08-03T08:17:03;6.53;;;3.13;;
69207;SDS011;56321;47.662;8.878;2022-08-03T08:19:28;6.97;;;2.90;;
69207;SDS011;56321;47.662;8.878;2022-08-03T08:21:54;7.03;;;2.87;;
69207;SDS011;56321;47.662;8.878;2022-08-03T08:24:19;6.55;;;2.95;;
69207;SDS011;56321;47.662;8.878;2022-08-03T08:26:45;7.37;;;2.77;;
69207;SDS011;56321;47.662;8.878;2022-08-03T08:29:10;5.90;;;2.70;;
69207;SDS011;56321;47.662;8.878;2022-08-03T08:31:36;6.47;;;2.88;;
69207;SDS011;56321;47.662;8.878;2022-08-03T08:34:01;6.57;;;2.60;;
69207;SDS011;56321;47.662;8.878;2022-08-03T08:36:30;5.93;;;2.60;;
69207;SDS011;56321;47.662;8.878;2022-08-03T08:38:57;6.20;;;2.77;;
69207;SDS011;56321;47.662;8.878;2022-08-03T08:41:22;6.30;;;2.90;;
69207;SDS011;56321;47.662;8.878;2022-08-03T08:43:47;5.93;;;2.70;;
69207;SDS011;56321;47.662;8.878;2022-08-03T08:46:13;7.30;;;2.93;;
69207;SDS011;56321;47.662;8.878;2022-08-03T08:48:41;7.10;;;3.15;;
69207;SDS011;56321;47.662;8.878;2022-08-03T08:51:08;7.03;;;2.95;;
69207;SDS011;56321;47.662;8.878;2022-08-03T08:53:36;5.97;;;3.10;;
69207;SDS011;56321;47.662;8.878;2022-08-03T08:56:02;8.02;;;2.95;;
69207;SDS011;56321;47.662;8.878;2022-08-03T08:58:29;6.75;;;2.83;;
69207;SDS011;56321;47.662;8.878;2022-08-03T09:01:00;7.68;;;2.95;;
69207;SDS011;56321;47.662;8.878;2022-08-03T09:03:26;6.03;;;3.27;;
69207;SDS011;56321;47.662;8.878;2022-08-03T09:05:51;5.90;;;3.17;;
69207;SDS011;56321;47.662;8.878;2022-08-03T09:08:17;6.80;;;3.05;;
69207;SDS011;56321;47.662;8.878;2022-08-03T09:10:43;6.23;;;3.10;;
69207;SDS011;56321;47.662;8.878;2022-08-03T09:13:08;5.88;;;2.88;;
69207;SDS011;56321;47.662;8.878;2022-08-03T09:15:34;6.33;;;3.20;;
69207;SDS011;56321;47.662;8.878;2022-08-03T09:18:00;6.20;;;3.00;;
69207;SDS011;56321;47.662;8.878;2022-08-03T09:20:28;6.93;;;2.97;;
69207;SDS011;56321;47.662;8.878;2022-08-03T09:25:32;6.10;;;3.35;;
69207;SDS011;56321;47.662;8.878;2022-08-03T09:28:08;6.43;;;2.67;;
69207;SDS011;56321;47.662;8.878;2022-08-03T09:30:35;6.00;;;2.70;;
69207;SDS011;56321;47.662;8.878;2022-08-03T09:33:02;5.72;;;2.90;;
69207;SDS011;56321;47.662;8.878;2022-08-03T09:35:45;6.07;;;2.67;;
69207;SDS011;56321;47.662;8.878;2022-08-03T09:38:13;5.30;;;2.40;;
69207;SDS011;56321;47.662;8.878;2022-08-03T09:40:40;5.37;;;2.33;;
69207;SDS011;56321;47.662;8.878;2022-08-03T09:43:06;6.40;;;2.50;;
69207;SDS011;56321;47.662;8.878;2022-08-03T09:45:32;5.57;;;2.95;;
69207;SDS011;56321;47.662;8.878;2022-08-03T09:50:47;6.35;;;2.85;;
69207;SDS011;56321;47.662;8.878;2022-08-03T09:53:13;5.70;;;2.47;;
69207;SDS011;56321;47.662;8.878;2022-08-03T09:55:39;5.43;;;2.58;;
69207;SDS011;56321;47.662;8.878;2022-08-03T09:58:24;5.30;;;2.50;;
69207;SDS011;56321;47.662;8.878;2022-08-03T10:00:58;5.47;;;2.70;;
69207;SDS011;56321;47.662;8.878;2022-08-03T10:03:26;5.88;;;2.70;;
69207;SDS011;56321;47.662;8.878;2022-08-03T10:05:53;5.95;;;2.92;;
69207;SDS011;56321;47.662;8.878;2022-08-03T10:08:19;5.95;;;2.65;;
69207;SDS011;56321;47.662;8.878;2022-08-03T10:10:46;5.53;;;2.60;;
69207;SDS011;56321;47.662;8.878;2022-08-03T10:13:14;7.15;;;2.75;;
69207;SDS011;56321;47.662;8.878;2022-08-03T10:15:40;6.05;;;2.88;;
69207;SDS011;56321;47.662;8.878;2022-08-03T10:18:06;5.17;;;2.40;;
69207;SDS011;56321;47.662;8.878;2022-08-03T10:20:32;6.35;;;2.60;;
69207;SDS011;56321;47.662;8.878;2022-08-03T10:23:01;5.40;;;2.78;;
69207;SDS011;56321;47.662;8.878;2022-08-03T10:25:29;5.60;;;2.50;;
69207;SDS011;56321;47.662;8.878;2022-08-03T10:27:57;6.95;;;3.13;;
69207;SDS011;56321;47.662;8.878;2022-08-03T10:30:26;5.85;;;2.97;;
69207;SDS011;56321;47.662;8.878;2022-08-03T10:35:23;6.03;;;2.72;;
69207;SDS011;56321;47.662;8.878;2022-08-03T10:40:30;5.85;;;2.88;;
69207;SDS011;56321;47.662;8.878;2022-08-03T10:43:06;5.70;;;2.63;;
69207;SDS011;56321;47.662;8.878;2022-08-03T10:45:35;6.15;;;2.50;;
69207;SDS011;56321;47.662;8.878;2022-08-03T10:48:05;5.78;;;2.80;;
69207;SDS011;56321;47.662;8.878;2022-08-03T10:50:31;5.27;;;2.73;;
69207;SDS011;56321;47.662;8.878;2022-08-03T10:52:59;7.40;;;3.50;;
69207;SDS011;56321;47.662;8.878;2022-08-03T10:55:45;6.05;;;2.90;;
69207;SDS011;56321;47.662;8.878;2022-08-03T11:01:00;5.90;;;2.70;;
69207;SDS011;56321;47.662;8.878;2022-08-03T11:03:27;6.68;;;2.95;;
69207;SDS011;56321;47.662;8.878;2022-08-03T11:05:52;5.50;;;3.15;;
69207;SDS011;56321;47.662;8.878;2022-08-03T11:11:00;6.55;;;3.00;;
69207;SDS011;56321;47.662;8.878;2022-08-03T11:16:27;5.80;;;2.90;;
69207;SDS011;56321;47.662;8.878;2022-08-03T11:18:57;5.75;;;2.72;;
69207;SDS011;56321;47.662;8.878;2022-08-03T11:22:09;5.67;;;2.70;;
69207;SDS011;56321;47.662;8.878;2022-08-03T11:45:56;6.22;;;2.50;;
69207;SDS011;56321;47.662;8.878;2022-08-03T11:48:31;5.10;;;2.50;;
69207;SDS011;56321;47.662;8.878;2022-08-03T11:50:58;4.90;;;2.38;;
69207;SDS011;56321;47.662;8.878;2022-08-03T11:53:24;5.30;;;2.20;;
69207;SDS011;56321;47.662;8.878;2022-08-03T11:55:49;4.97;;;2.30;;
69207;SDS011;56321;47.662;8.878;2022-08-03T11:58:20;4.95;;;2.20;;
69207;SDS011;56321;47.662;8.878;2022-08-03T12:00:47;5.67;;;2.60;;
69207;SDS011;56321;47.662;8.878;2022-08-03T12:03:16;5.47;;;2.90;;
69207;SDS011;56321;47.662;8.878;2022-08-03T12:05:52;5.00;;;2.47;;
69207;SDS011;56321;47.662;8.878;2022-08-03T12:08:39;5.38;;;2.92;;
69207;SDS011;56321;47.662;8.878;2022-08-03T12:11:05;5.30;;;2.40;;
69207;SDS011;56321;47.662;8.878;2022-08-03T12:13:36;5.00;;;2.70;;
69207;SDS011;56321;47.662;8.878;2022-08-03T12:16:03;5.15;;;2.85;;
69207;SDS011;56321;47.662;8.878;2022-08-03T12:18:29;5.43;;;2.72;;
69207;SDS011;56321;47.662;8.878;2022-08-03T12:21:04;5.13;;;2.50;;
69207;SDS011;56321;47.662;8.878;2022-08-03T12:23:31;5.13;;;2.90;;
69207;SDS011;56321;47.662;8.878;2022-08-03T12:26:01;5.40;;;2.70;;
69207;SDS011;56321;47.662;8.878;2022-08-03T12:28:28;5.15;;;2.70;;
69207;SDS011;56321;47.662;8.878;2022-08-03T12:30:53;6.13;;;2.90;;
69207;SDS011;56321;47.662;8.878;2022-08-03T12:33:20;5.47;;;3.10;;
69207;SDS011;56321;47.662;8.878;2022-08-03T12:36:11;4.95;;;2.42;;
69207;SDS011;56321;47.662;8.878;2022-08-03T12:38:37;5.77;;;2.50;;
69207;SDS011;56321;47.662;8.878;2022-08-03T12:41:04;5.80;;;2.63;;
69207;SDS011;56321;47.662;8.878;2022-08-03T12:43:46;5.47;;;2.58;;
69207;SDS011;56321;47.662;8.878;2022-08-03T12:46:14;4.90;;;2.72;;
69207;SDS011;56321;47.662;8.878;2022-08-03T12:48:56;5.65;;;2.42;;
69207;SDS011;56321;47.662;8.878;2022-08-03T12:51:27;4.73;;;2.13;;
69207;SDS011;56321;47.662;8.878;2022-08-03T12:53:53;5.20;;;2.30;;
69207;SDS011;56321;47.662;8.878;2022-08-03T12:56:19;4.75;;;2.20;;
69207;SDS011;56321;47.662;8.878;2022-08-03T12:58:44;4.97;;;2.47;;
69207;SDS011;56321;47.662;8.878;2022-08-03T13:01:11;5.20;;;2.80;;
69207;SDS011;56321;47.662;8.878;2022-08-03T13:03:38;5.95;;;2.40;;
69207;SDS011;56321;47.662;8.878;2022-08-03T13:06:15;4.73;;;2.13;;
69207;SDS011;56321;47.662;8.878;2022-08-03T13:08:48;5.18;;;2.10;;
69207;SDS011;56321;47.662;8.878;2022-08-03T13:11:19;5.53;;;2.45;;
69207;SDS011;56321;47.662;8.878;2022-08-03T13:13:45;6.18;;;2.63;;
69207;SDS011;56321;47.662;8.878;2022-08-03T13:16:11;5.13;;;2.60;;
69207;SDS011;56321;47.662;8.878;2022-08-03T13:18:36;5.70;;;2.90;;
69207;SDS011;56321;47.662;8.878;2022-08-03T13:21:01;5.07;;;2.50;;
69207;SDS011;56321;47.662;8.878;2022-08-03T13:23:27;4.97;;;2.17;;
69207;SDS011;56321;47.662;8.878;2022-08-03T13:25:52;4.77;;;2.20;;
69207;SDS011;56321;47.662;8.878;2022-08-03T13:28:18;5.68;;;2.28;;
69207;SDS011;56321;47.662;8.878;2022-08-03T13:30:43;5.27;;;2.60;;
69207;SDS011;56321;47.662;8.878;2022-08-03T13:33:08;5.47;;;2.50;;
69207;SDS011;56321;47.662;8.878;2022-08-03T13:35:34;4.80;;;2.20;;
69207;SDS011;56321;47.662;8.878;2022-08-03T13:37:59;5.10;;;2.50;;
69207;SDS011;56321;47.662;8.878;2022-08-03T13:40:25;5.22;;;2.47;;
69207;SDS011;56321;47.662;8.878;2022-08-03T13:42:50;5.27;;;2.77;;
69207;SDS011;56321;47.662;8.878;2022-08-03T13:45:15;5.30;;;2.43;;
69207;SDS011;56321;47.662;8.878;2022-08-03T13:47:41;5.73;;;2.40;;
69207;SDS011;56321;47.662;8.878;2022-08-03T13:50:06;6.20;;;2.70;;
69207;SDS011;56321;47.662;8.878;2022-08-03T13:52:33;5.20;;;2.00;;
69207;SDS011;56321;47.662;8.878;2022-08-03T13:54:59;6.13;;;2.60;;
69207;SDS011;56321;47.662;8.878;2022-08-03T13:57:26;5.35;;;2.65;;
69207;SDS011;56321;47.662;8.878;2022-08-03T13:59:52;5.10;;;2.40;;
69207;SDS011;56321;47.662;8.878;2022-08-03T14:02:17;5.70;;;2.70;;
69207;SDS011;56321;47.662;8.878;2022-08-03T14:04:43;5.43;;;2.60;;
69207;SDS011;56321;47.662;8.878;2022-08-03T14:07:08;5.47;;;2.23;;
69207;SDS011;56321;47.662;8.878;2022-08-03T14:09:33;4.83;;;2.40;;
69207;SDS011;56321;47.662;8.878;2022-08-03T14:11:59;4.97;;;2.40;;
69207;SDS011;56321;47.662;8.878;2022-08-03T14:14:24;5.63;;;2.20;;
69207;SDS011;56321;47.662;8.878;2022-08-03T14:16:50;5.03;;;2.60;;
69207;SDS011;56321;47.662;8.878;2022-08-03T14:19:15;5.10;;;2.50;;
69207;SDS011;56321;47.662;8.878;2022-08-03T14:21:40;4.93;;;2.20;;
69207;SDS011;56321;47.662;8.878;2022-08-03T14:24:06;5.30;;;2.03;;
69207;SDS011;56321;47.662;8.878;2022-08-03T14:26:31;4.67;;;2.10;;
69207;SDS011;56321;47.662;8.878;2022-08-03T14:28:57;6.20;;;2.40;;
69207;SDS011;56321;47.662;8.878;2022-08-03T14:31:22;4.75;;;1.90;;
69207;SDS011;56321;47.662;8.878;2022-08-03T14:33:48;5.90;;;2.23;;
69207;SDS011;56321;47.662;8.878;2022-08-03T14:36:13;4.60;;;2.20;;
69207;SDS011;56321;47.662;8.878;2022-08-03T14:38:38;4.90;;;2.07;;
69207;SDS011;56321;47.662;8.878;2022-08-03T14:41:04;4.90;;;2.10;;
69207;SDS011;56321;47.662;8.878;2022-08-03T14:43:29;5.53;;;2.23;;
69207;SDS011;56321;47.662;8.878;2022-08-03T14:45:54;5.13;;;2.00;;
69207;SDS011;56321;47.662;8.878;2022-08-03T14:48:20;5.87;;;2.03;;
69207;SDS011;56321;47.662;8.878;2022-08-03T14:50:47;5.05;;;2.13;;
69207;SDS011;56321;47.662;8.878;2022-08-03T14:53:13;5.23;;;1.97;;
69207;SDS011;56321;47.662;8.878;2022-08-03T14:55:38;4.30;;;1.83;;
69207;SDS011;56321;47.662;8.878;2022-08-03T14:58:04;4.80;;;2.03;;
69207;SDS011;56321;47.662;8.878;2022-08-03T15:00:31;5.15;;;1.90;;
69207;SDS011;56321;47.662;8.878;2022-08-03T15:02:56;4.40;;;1.95;;
69207;SDS011;56321;47.662;8.878;2022-08-03T15:05:22;5.03;;;2.57;;
69207;SDS011;56321;47.662;8.878;2022-08-03T15:07:47;5.47;;;2.23;;
69207;SDS011;56321;47.662;8.878;2022-08-03T15:10:13;4.68;;;2.10;;
69207;SDS011;56321;47.662;8.878;2022-08-03T15:12:38;6.00;;;2.00;;
69207;SDS011;56321;47.662;8.878;2022-08-03T15:15:04;4.70;;;1.87;;
69207;SDS011;56321;47.662;8.878;2022-08-03T15:17:30;5.15;;;2.42;;
69207;SDS011;56321;47.662;8.878;2022-08-03T15:19:55;5.63;;;2.30;;
69207;SDS011;56321;47.662;8.878;2022-08-03T15:22:21;4.70;;;2.30;;
69207;SDS011;56321;47.662;8.878;2022-08-03T15:24:46;5.82;;;2.17;;
69207;SDS011;56321;47.662;8.878;2022-08-03T15:27:11;5.47;;;2.33;;
69207;SDS011;56321;47.662;8.878;2022-08-03T15:29:37;6.70;;;2.23;;
69207;SDS011;56321;47.662;8.878;2022-08-03T15:32:02;7.00;;;2.37;;
69207;SDS011;56321;47.662;8.878;2022-08-03T15:34:28;4.78;;;2.20;;
69207;SDS011;56321;47.662;8.878;2022-08-03T15:36:53;5.07;;;2.10;;
69207;SDS011;56321;47.662;8.878;2022-08-03T15:39:18;4.70;;;1.70;;
69207;SDS011;56321;47.662;8.878;2022-08-03T15:41:44;4.70;;;2.20;;
69207;SDS011;56321;47.662;8.878;2022-08-03T15:44:09;4.90;;;2.10;;
69207;SDS011;56321;47.662;8.878;2022-08-03T15:46:35;4.73;;;2.00;;